sensor_id;sensor_type;location;lat;lon;timestamp;P1;durP1;ratioP1;P2;durP2;ratioP2
43086;SDS011;28708;52.224;6.924;2023-11-22T00:01:05;8.97;;;4.23;;
43086;SDS011;28708;52.224;6.924;2023-11-22T00:03:31;9.70;;;4.60;;
43086;SDS011;28708;52.224;6.924;2023-11-22T00:05:57;8.03;;;4.00;;
43086;SDS011;28708;52.224;6.924;2023-11-22T00:08:23;7.90;;;3.77;;
43086;SDS011;28708;52.224;6.924;2023-11-22T00:10:48;8.70;;;4.03;;
43086;SDS011;28708;52.224;6.924;2023-11-22T00:13:14;7.67;;;3.90;;
43086;SDS011;28708;52.224;6.924;2023-11-22T00:15:40;9.53;;;3.80;;
43086;SDS011;28708;52.224;6.924;2023-11-22T00:18:06;7.70;;;3.53;;
43086;SDS011;28708;52.224;6.924;2023-11-22T00:20:31;9.63;;;3.53;;
43086;SDS011;28708;52.224;6.924;2023-11-22T00:22:58;7.30;;;3.73;;
43086;SDS011;28708;52.224;6.924;2023-11-22T00:25:24;8.70;;;3.50;;
43086;SDS011;28708;52.224;6.924;2023-11-22T00:27:50;8.20;;;3.60;;
43086;SDS011;28708;52.224;6.924;2023-11-22T00:30:16;7.63;;;3.70;;
43086;SDS011;28708;52.224;6.924;2023-11-22T00:32:41;8.00;;;4.07;;
43086;SDS011;28708;52.224;6.924;2023-11-22T00:35:07;8.90;;;4.30;;
43086;SDS011;28708;52.224;6.924;2023-11-22T00:37:33;9.47;;;4.17;;
43086;SDS011;28708;52.224;6.924;2023-11-22T00:40:01;6.87;;;3.43;;
43086;SDS011;28708;52.224;6.924;2023-11-22T00:42:35;7.17;;;3.23;;
43086;SDS011;28708;52.224;6.924;2023-11-22T00:45:07;7.77;;;3.83;;
43086;SDS011;28708;52.224;6.924;2023-11-22T00:47:33;7.70;;;3.70;;
43086;SDS011;28708;52.224;6.924;2023-11-22T00:49:59;7.50;;;3.40;;
43086;SDS011;28708;52.224;6.924;2023-11-22T00:52:25;7.93;;;3.67;;
43086;SDS011;28708;52.224;6.924;2023-11-22T00:54:50;8.27;;;3.83;;
43086;SDS011;28708;52.224;6.924;2023-11-22T00:57:16;7.47;;;3.70;;
43086;SDS011;28708;52.224;6.924;2023-11-22T00:59:42;5.63;;;3.17;;
43086;SDS011;28708;52.224;6.924;2023-11-22T01:02:07;6.70;;;3.40;;
43086;SDS011;28708;52.224;6.924;2023-11-22T01:04:34;8.70;;;3.97;;
43086;SDS011;28708;52.224;6.924;2023-11-22T01:07:01;6.23;;;3.20;;
43086;SDS011;28708;52.224;6.924;2023-11-22T01:09:29;5.70;;;2.90;;
43086;SDS011;28708;52.224;6.924;2023-11-22T01:11:57;6.67;;;3.40;;
43086;SDS011;28708;52.224;6.924;2023-11-22T01:14:23;9.83;;;4.30;;
43086;SDS011;28708;52.224;6.924;2023-11-22T01:16:49;6.33;;;3.17;;
43086;SDS011;28708;52.224;6.924;2023-11-22T01:19:15;9.97;;;3.47;;
43086;SDS011;28708;52.224;6.924;2023-11-22T01:21:41;6.90;;;3.23;;
43086;SDS011;28708;52.224;6.924;2023-11-22T01:24:07;7.23;;;3.40;;
43086;SDS011;28708;52.224;6.924;2023-11-22T01:26:33;9.33;;;3.73;;
43086;SDS011;28708;52.224;6.924;2023-11-22T01:28:58;6.33;;;3.00;;
43086;SDS011;28708;52.224;6.924;2023-11-22T01:31:25;7.23;;;3.27;;
43086;SDS011;28708;52.224;6.924;2023-11-22T01:33:52;9.07;;;3.60;;
43086;SDS011;28708;52.224;6.924;2023-11-22T01:36:19;8.17;;;3.40;;
43086;SDS011;28708;52.224;6.924;2023-11-22T01:38:45;6.53;;;2.80;;
43086;SDS011;28708;52.224;6.924;2023-11-22T01:41:11;7.00;;;3.77;;
43086;SDS011;28708;52.224;6.924;2023-11-22T01:43:38;6.60;;;3.40;;
43086;SDS011;28708;52.224;6.924;2023-11-22T01:46:07;4.83;;;2.70;;
43086;SDS011;28708;52.224;6.924;2023-11-22T01:48:35;6.77;;;4.17;;
43086;SDS011;28708;52.224;6.924;2023-11-22T01:51:04;8.87;;;3.63;;
43086;SDS011;28708;52.224;6.924;2023-11-22T01:53:30;10.03;;;3.73;;
43086;SDS011;28708;52.224;6.924;2023-11-22T01:55:57;8.93;;;3.90;;
43086;SDS011;28708;52.224;6.924;2023-11-22T01:58:23;6.27;;;3.00;;
43086;SDS011;28708;52.224;6.924;2023-11-22T02:00:49;7.17;;;3.53;;
43086;SDS011;28708;52.224;6.924;2023-11-22T02:03:17;8.83;;;4.27;;
43086;SDS011;28708;52.224;6.924;2023-11-22T02:05:44;6.93;;;3.33;;
43086;SDS011;28708;52.224;6.924;2023-11-22T02:08:10;10.13;;;3.50;;
43086;SDS011;28708;52.224;6.924;2023-11-22T02:10:37;6.23;;;3.17;;
43086;SDS011;28708;52.224;6.924;2023-11-22T02:13:03;5.57;;;3.10;;
43086;SDS011;28708;52.224;6.924;2023-11-22T02:15:32;7.50;;;3.27;;
43086;SDS011;28708;52.224;6.924;2023-11-22T02:18:04;9.73;;;4.73;;
43086;SDS011;28708;52.224;6.924;2023-11-22T02:22:57;7.33;;;3.40;;
43086;SDS011;28708;52.224;6.924;2023-11-22T02:25:26;8.20;;;3.80;;
43086;SDS011;28708;52.224;6.924;2023-11-22T02:27:51;7.20;;;3.47;;
43086;SDS011;28708;52.224;6.924;2023-11-22T02:30:17;6.60;;;2.90;;
43086;SDS011;28708;52.224;6.924;2023-11-22T02:32:43;7.13;;;3.50;;
43086;SDS011;28708;52.224;6.924;2023-11-22T02:35:12;6.50;;;2.70;;
43086;SDS011;28708;52.224;6.924;2023-11-22T02:37:38;6.93;;;3.37;;
43086;SDS011;28708;52.224;6.924;2023-11-22T02:40:16;6.23;;;3.00;;
43086;SDS011;28708;52.224;6.924;2023-11-22T02:42:44;8.85;;;4.05;;
43086;SDS011;28708;52.224;6.924;2023-11-22T02:45:17;7.17;;;3.43;;
43086;SDS011;28708;52.224;6.924;2023-11-22T02:47:44;6.13;;;3.07;;
43086;SDS011;28708;52.224;6.924;2023-11-22T02:50:14;6.17;;;2.90;;
43086;SDS011;28708;52.224;6.924;2023-11-22T02:52:40;8.13;;;3.27;;
43086;SDS011;28708;52.224;6.924;2023-11-22T02:55:06;7.73;;;3.80;;
43086;SDS011;28708;52.224;6.924;2023-11-22T02:57:34;10.13;;;3.53;;
43086;SDS011;28708;52.224;6.924;2023-11-22T03:00:01;8.10;;;3.57;;
43086;SDS011;28708;52.224;6.924;2023-11-22T03:02:29;7.67;;;2.93;;
43086;SDS011;28708;52.224;6.924;2023-11-22T03:04:55;6.50;;;2.90;;
43086;SDS011;28708;52.224;6.924;2023-11-22T03:07:21;9.20;;;3.70;;
43086;SDS011;28708;52.224;6.924;2023-11-22T03:09:47;7.00;;;3.20;;
43086;SDS011;28708;52.224;6.924;2023-11-22T03:12:13;8.90;;;3.67;;
43086;SDS011;28708;52.224;6.924;2023-11-22T03:14:40;6.30;;;3.33;;
43086;SDS011;28708;52.224;6.924;2023-11-22T03:17:06;7.73;;;3.30;;
43086;SDS011;28708;52.224;6.924;2023-11-22T03:19:33;6.70;;;3.77;;
43086;SDS011;28708;52.224;6.924;2023-11-22T03:21:59;7.63;;;3.47;;
43086;SDS011;28708;52.224;6.924;2023-11-22T03:24:28;6.57;;;3.07;;
43086;SDS011;28708;52.224;6.924;2023-11-22T03:26:55;6.83;;;3.10;;
43086;SDS011;28708;52.224;6.924;2023-11-22T03:29:24;6.67;;;3.13;;
43086;SDS011;28708;52.224;6.924;2023-11-22T03:31:50;6.20;;;2.93;;
43086;SDS011;28708;52.224;6.924;2023-11-22T03:34:16;6.50;;;3.00;;
43086;SDS011;28708;52.224;6.924;2023-11-22T03:36:43;5.40;;;3.03;;
43086;SDS011;28708;52.224;6.924;2023-11-22T03:39:09;6.20;;;3.10;;
43086;SDS011;28708;52.224;6.924;2023-11-22T03:41:35;6.80;;;3.10;;
43086;SDS011;28708;52.224;6.924;2023-11-22T03:44:02;7.43;;;3.57;;
43086;SDS011;28708;52.224;6.924;2023-11-22T03:46:29;6.50;;;2.77;;
43086;SDS011;28708;52.224;6.924;2023-11-22T03:48:55;7.00;;;3.60;;
43086;SDS011;28708;52.224;6.924;2023-11-22T03:51:21;7.87;;;3.60;;
43086;SDS011;28708;52.224;6.924;2023-11-22T03:53:46;7.77;;;3.07;;
43086;SDS011;28708;52.224;6.924;2023-11-22T03:56:12;7.07;;;2.87;;
43086;SDS011;28708;52.224;6.924;2023-11-22T03:58:39;7.17;;;2.97;;
43086;SDS011;28708;52.224;6.924;2023-11-22T04:01:05;4.83;;;2.67;;
43086;SDS011;28708;52.224;6.924;2023-11-22T04:03:31;5.50;;;3.00;;
43086;SDS011;28708;52.224;6.924;2023-11-22T04:05:57;8.10;;;3.57;;
43086;SDS011;28708;52.224;6.924;2023-11-22T04:08:23;6.57;;;3.53;;
43086;SDS011;28708;52.224;6.924;2023-11-22T04:10:50;9.23;;;3.10;;
43086;SDS011;28708;52.224;6.924;2023-11-22T04:13:17;6.60;;;3.20;;
43086;SDS011;28708;52.224;6.924;2023-11-22T04:15:43;6.33;;;3.53;;
43086;SDS011;28708;52.224;6.924;2023-11-22T04:18:08;8.17;;;3.87;;
43086;SDS011;28708;52.224;6.924;2023-11-22T04:20:34;6.27;;;3.10;;
43086;SDS011;28708;52.224;6.924;2023-11-22T04:23:00;7.83;;;3.83;;
43086;SDS011;28708;52.224;6.924;2023-11-22T04:25:26;7.10;;;3.33;;
43086;SDS011;28708;52.224;6.924;2023-11-22T04:27:52;8.87;;;4.20;;
43086;SDS011;28708;52.224;6.924;2023-11-22T04:30:19;10.10;;;4.30;;
43086;SDS011;28708;52.224;6.924;2023-11-22T04:32:46;7.63;;;3.73;;
43086;SDS011;28708;52.224;6.924;2023-11-22T04:35:13;6.50;;;3.50;;
43086;SDS011;28708;52.224;6.924;2023-11-22T04:37:39;8.40;;;3.67;;
43086;SDS011;28708;52.224;6.924;2023-11-22T04:40:05;6.70;;;3.60;;
43086;SDS011;28708;52.224;6.924;2023-11-22T04:42:36;10.13;;;4.07;;
43086;SDS011;28708;52.224;6.924;2023-11-22T04:45:03;8.37;;;3.40;;
43086;SDS011;28708;52.224;6.924;2023-11-22T04:47:29;9.97;;;4.20;;
43086;SDS011;28708;52.224;6.924;2023-11-22T04:49:54;7.23;;;3.63;;
43086;SDS011;28708;52.224;6.924;2023-11-22T04:52:20;7.40;;;3.90;;
43086;SDS011;28708;52.224;6.924;2023-11-22T04:54:45;7.70;;;4.03;;
43086;SDS011;28708;52.224;6.924;2023-11-22T04:57:11;10.03;;;4.50;;
43086;SDS011;28708;52.224;6.924;2023-11-22T04:59:37;8.70;;;3.60;;
43086;SDS011;28708;52.224;6.924;2023-11-22T05:02:04;10.43;;;4.07;;
43086;SDS011;28708;52.224;6.924;2023-11-22T05:04:32;8.67;;;4.17;;
43086;SDS011;28708;52.224;6.924;2023-11-22T05:06:58;8.07;;;3.47;;
43086;SDS011;28708;52.224;6.924;2023-11-22T05:09:24;7.63;;;3.50;;
43086;SDS011;28708;52.224;6.924;2023-11-22T05:11:49;7.37;;;3.97;;
43086;SDS011;28708;52.224;6.924;2023-11-22T05:14:17;8.27;;;3.80;;
43086;SDS011;28708;52.224;6.924;2023-11-22T05:16:42;7.50;;;3.53;;
43086;SDS011;28708;52.224;6.924;2023-11-22T05:19:08;6.80;;;3.73;;
43086;SDS011;28708;52.224;6.924;2023-11-22T05:21:34;9.67;;;4.23;;
43086;SDS011;28708;52.224;6.924;2023-11-22T05:24:01;8.00;;;3.43;;
43086;SDS011;28708;52.224;6.924;2023-11-22T05:26:26;7.07;;;3.57;;
43086;SDS011;28708;52.224;6.924;2023-11-22T05:28:52;6.70;;;3.37;;
43086;SDS011;28708;52.224;6.924;2023-11-22T05:31:21;6.50;;;3.13;;
43086;SDS011;28708;52.224;6.924;2023-11-22T05:33:48;10.07;;;4.05;;
43086;SDS011;28708;52.224;6.924;2023-11-22T05:36:13;7.17;;;3.90;;
43086;SDS011;28708;52.224;6.924;2023-11-22T05:38:41;9.43;;;4.07;;
43086;SDS011;28708;52.224;6.924;2023-11-22T05:41:07;9.40;;;4.33;;
43086;SDS011;28708;52.224;6.924;2023-11-22T05:43:33;9.33;;;3.97;;
43086;SDS011;28708;52.224;6.924;2023-11-22T05:46:02;8.37;;;3.70;;
43086;SDS011;28708;52.224;6.924;2023-11-22T05:48:29;8.47;;;4.00;;
43086;SDS011;28708;52.224;6.924;2023-11-22T05:50:55;8.07;;;4.27;;
43086;SDS011;28708;52.224;6.924;2023-11-22T05:53:21;9.17;;;3.67;;
43086;SDS011;28708;52.224;6.924;2023-11-22T05:55:47;9.93;;;4.23;;
43086;SDS011;28708;52.224;6.924;2023-11-22T05:58:16;10.27;;;3.83;;
43086;SDS011;28708;52.224;6.924;2023-11-22T06:00:45;6.47;;;3.70;;
43086;SDS011;28708;52.224;6.924;2023-11-22T06:03:12;8.27;;;3.80;;
43086;SDS011;28708;52.224;6.924;2023-11-22T06:05:38;9.60;;;4.23;;
43086;SDS011;28708;52.224;6.924;2023-11-22T06:08:04;6.70;;;2.93;;
43086;SDS011;28708;52.224;6.924;2023-11-22T06:10:30;6.93;;;3.20;;
43086;SDS011;28708;52.224;6.924;2023-11-22T06:12:56;8.13;;;3.47;;
43086;SDS011;28708;52.224;6.924;2023-11-22T06:15:21;8.00;;;4.07;;
43086;SDS011;28708;52.224;6.924;2023-11-22T06:17:47;6.67;;;3.23;;
43086;SDS011;28708;52.224;6.924;2023-11-22T06:20:14;7.50;;;3.10;;
43086;SDS011;28708;52.224;6.924;2023-11-22T06:22:41;6.37;;;3.23;;
43086;SDS011;28708;52.224;6.924;2023-11-22T06:25:13;6.63;;;3.53;;
43086;SDS011;28708;52.224;6.924;2023-11-22T06:27:39;8.97;;;4.37;;
43086;SDS011;28708;52.224;6.924;2023-11-22T06:30:05;8.60;;;4.17;;
43086;SDS011;28708;52.224;6.924;2023-11-22T06:32:32;7.57;;;3.57;;
43086;SDS011;28708;52.224;6.924;2023-11-22T06:35:00;13.07;;;4.93;;
43086;SDS011;28708;52.224;6.924;2023-11-22T06:37:26;7.20;;;3.57;;
43086;SDS011;28708;52.224;6.924;2023-11-22T06:39:52;9.07;;;4.30;;
43086;SDS011;28708;52.224;6.924;2023-11-22T06:42:18;6.80;;;3.37;;
43086;SDS011;28708;52.224;6.924;2023-11-22T06:44:48;10.67;;;3.70;;
43086;SDS011;28708;52.224;6.924;2023-11-22T06:47:14;7.67;;;3.70;;
43086;SDS011;28708;52.224;6.924;2023-11-22T06:49:40;7.47;;;3.53;;
43086;SDS011;28708;52.224;6.924;2023-11-22T06:52:06;8.13;;;3.63;;
43086;SDS011;28708;52.224;6.924;2023-11-22T06:54:31;7.07;;;3.37;;
43086;SDS011;28708;52.224;6.924;2023-11-22T06:56:57;6.70;;;3.63;;
43086;SDS011;28708;52.224;6.924;2023-11-22T06:59:23;6.80;;;3.20;;
43086;SDS011;28708;52.224;6.924;2023-11-22T07:01:48;8.97;;;3.90;;
43086;SDS011;28708;52.224;6.924;2023-11-22T07:04:14;6.83;;;3.37;;
43086;SDS011;28708;52.224;6.924;2023-11-22T07:06:39;6.47;;;3.43;;
43086;SDS011;28708;52.224;6.924;2023-11-22T07:09:05;6.80;;;3.43;;
43086;SDS011;28708;52.224;6.924;2023-11-22T07:11:36;5.78;;;2.97;;
43086;SDS011;28708;52.224;6.924;2023-11-22T07:14:02;7.00;;;3.07;;
43086;SDS011;28708;52.224;6.924;2023-11-22T07:16:29;6.63;;;3.53;;
43086;SDS011;28708;52.224;6.924;2023-11-22T07:18:55;7.07;;;3.77;;
43086;SDS011;28708;52.224;6.924;2023-11-22T07:21:22;8.83;;;3.57;;
43086;SDS011;28708;52.224;6.924;2023-11-22T07:23:47;5.80;;;3.10;;
43086;SDS011;28708;52.224;6.924;2023-11-22T07:26:13;5.80;;;3.37;;
43086;SDS011;28708;52.224;6.924;2023-11-22T07:28:39;6.87;;;3.27;;
43086;SDS011;28708;52.224;6.924;2023-11-22T07:31:08;6.23;;;3.20;;
43086;SDS011;28708;52.224;6.924;2023-11-22T07:33:34;7.10;;;3.40;;
43086;SDS011;28708;52.224;6.924;2023-11-22T07:36:00;8.23;;;3.47;;
43086;SDS011;28708;52.224;6.924;2023-11-22T07:38:28;6.67;;;3.07;;
43086;SDS011;28708;52.224;6.924;2023-11-22T07:40:54;6.63;;;3.33;;
43086;SDS011;28708;52.224;6.924;2023-11-22T07:43:21;6.10;;;2.83;;
43086;SDS011;28708;52.224;6.924;2023-11-22T07:45:47;6.80;;;3.70;;
43086;SDS011;28708;52.224;6.924;2023-11-22T07:48:14;6.23;;;3.17;;
43086;SDS011;28708;52.224;6.924;2023-11-22T07:50:40;6.87;;;3.40;;
43086;SDS011;28708;52.224;6.924;2023-11-22T07:53:11;8.57;;;3.73;;
43086;SDS011;28708;52.224;6.924;2023-11-22T07:55:38;7.53;;;3.45;;
43086;SDS011;28708;52.224;6.924;2023-11-22T07:58:04;5.80;;;2.90;;
43086;SDS011;28708;52.224;6.924;2023-11-22T08:00:33;7.73;;;3.50;;
43086;SDS011;28708;52.224;6.924;2023-11-22T08:02:59;7.97;;;3.13;;
43086;SDS011;28708;52.224;6.924;2023-11-22T08:05:28;7.60;;;3.70;;
43086;SDS011;28708;52.224;6.924;2023-11-22T08:08:04;6.57;;;3.73;;
43086;SDS011;28708;52.224;6.924;2023-11-22T08:10:36;6.40;;;2.73;;
43086;SDS011;28708;52.224;6.924;2023-11-22T08:13:02;8.27;;;3.57;;
43086;SDS011;28708;52.224;6.924;2023-11-22T08:15:28;7.50;;;3.57;;
43086;SDS011;28708;52.224;6.924;2023-11-22T08:17:54;6.93;;;3.67;;
43086;SDS011;28708;52.224;6.924;2023-11-22T08:20:20;6.13;;;3.60;;
43086;SDS011;28708;52.224;6.924;2023-11-22T08:22:47;6.00;;;3.20;;
43086;SDS011;28708;52.224;6.924;2023-11-22T08:25:14;7.93;;;3.80;;
43086;SDS011;28708;52.224;6.924;2023-11-22T08:27:41;7.63;;;3.60;;
43086;SDS011;28708;52.224;6.924;2023-11-22T08:30:07;8.87;;;3.77;;
43086;SDS011;28708;52.224;6.924;2023-11-22T08:32:38;7.23;;;3.93;;
43086;SDS011;28708;52.224;6.924;2023-11-22T08:35:06;7.90;;;3.67;;
43086;SDS011;28708;52.224;6.924;2023-11-22T08:37:33;8.53;;;3.83;;
43086;SDS011;28708;52.224;6.924;2023-11-22T08:40:01;8.73;;;4.13;;
43086;SDS011;28708;52.224;6.924;2023-11-22T08:42:27;7.00;;;3.50;;
43086;SDS011;28708;52.224;6.924;2023-11-22T08:44:53;7.77;;;4.27;;
43086;SDS011;28708;52.224;6.924;2023-11-22T08:47:18;8.40;;;4.20;;
43086;SDS011;28708;52.224;6.924;2023-11-22T08:49:44;8.53;;;4.00;;
43086;SDS011;28708;52.224;6.924;2023-11-22T08:52:10;5.83;;;3.33;;
43086;SDS011;28708;52.224;6.924;2023-11-22T08:54:38;5.93;;;3.40;;
43086;SDS011;28708;52.224;6.924;2023-11-22T08:57:04;8.50;;;3.40;;
43086;SDS011;28708;52.224;6.924;2023-11-22T08:59:31;4.97;;;3.13;;
43086;SDS011;28708;52.224;6.924;2023-11-22T09:02:03;6.60;;;2.90;;
43086;SDS011;28708;52.224;6.924;2023-11-22T09:04:32;5.25;;;2.47;;
43086;SDS011;28708;52.224;6.924;2023-11-22T09:06:58;5.90;;;3.37;;
43086;SDS011;28708;52.224;6.924;2023-11-22T09:09:24;7.60;;;3.93;;
43086;SDS011;28708;52.224;6.924;2023-11-22T09:11:59;5.27;;;2.63;;
43086;SDS011;28708;52.224;6.924;2023-11-22T09:14:25;5.40;;;2.87;;
43086;SDS011;28708;52.224;6.924;2023-11-22T09:16:51;6.83;;;3.50;;
43086;SDS011;28708;52.224;6.924;2023-11-22T09:19:20;7.43;;;3.90;;
43086;SDS011;28708;52.224;6.924;2023-11-22T09:21:46;6.50;;;3.03;;
43086;SDS011;28708;52.224;6.924;2023-11-22T09:24:12;5.30;;;2.87;;
43086;SDS011;28708;52.224;6.924;2023-11-22T09:26:38;4.83;;;2.63;;
43086;SDS011;28708;52.224;6.924;2023-11-22T09:29:03;4.67;;;2.87;;
43086;SDS011;28708;52.224;6.924;2023-11-22T09:31:30;8.30;;;3.70;;
43086;SDS011;28708;52.224;6.924;2023-11-22T09:33:56;5.70;;;3.03;;
43086;SDS011;28708;52.224;6.924;2023-11-22T09:36:22;6.13;;;3.30;;
43086;SDS011;28708;52.224;6.924;2023-11-22T09:38:50;7.27;;;3.70;;
43086;SDS011;28708;52.224;6.924;2023-11-22T09:41:17;5.83;;;3.30;;
43086;SDS011;28708;52.224;6.924;2023-11-22T09:43:42;6.00;;;3.07;;
43086;SDS011;28708;52.224;6.924;2023-11-22T09:46:11;5.53;;;3.27;;
43086;SDS011;28708;52.224;6.924;2023-11-22T09:48:39;6.53;;;3.07;;
43086;SDS011;28708;52.224;6.924;2023-11-22T09:51:20;7.33;;;3.83;;
43086;SDS011;28708;52.224;6.924;2023-11-22T09:53:55;8.07;;;3.50;;
43086;SDS011;28708;52.224;6.924;2023-11-22T09:56:24;6.30;;;3.03;;
43086;SDS011;28708;52.224;6.924;2023-11-22T09:58:54;4.87;;;3.07;;
43086;SDS011;28708;52.224;6.924;2023-11-22T10:01:21;6.27;;;3.33;;
43086;SDS011;28708;52.224;6.924;2023-11-22T10:03:48;6.07;;;2.80;;
43086;SDS011;28708;52.224;6.924;2023-11-22T10:06:14;6.17;;;3.07;;
43086;SDS011;28708;52.224;6.924;2023-11-22T10:08:40;6.37;;;3.07;;
43086;SDS011;28708;52.224;6.924;2023-11-22T10:11:06;6.33;;;3.10;;
43086;SDS011;28708;52.224;6.924;2023-11-22T10:13:32;4.50;;;2.30;;
43086;SDS011;28708;52.224;6.924;2023-11-22T10:16:12;4.47;;;2.73;;
43086;SDS011;28708;52.224;6.924;2023-11-22T10:18:44;5.20;;;3.00;;
43086;SDS011;28708;52.224;6.924;2023-11-22T10:21:23;5.43;;;2.83;;
43086;SDS011;28708;52.224;6.924;2023-11-22T10:23:50;4.27;;;2.43;;
43086;SDS011;28708;52.224;6.924;2023-11-22T10:26:18;4.50;;;2.50;;
43086;SDS011;28708;52.224;6.924;2023-11-22T10:28:44;4.37;;;2.80;;
43086;SDS011;28708;52.224;6.924;2023-11-22T10:31:10;4.80;;;2.53;;
43086;SDS011;28708;52.224;6.924;2023-11-22T10:33:39;5.23;;;2.57;;
43086;SDS011;28708;52.224;6.924;2023-11-22T10:36:07;4.03;;;2.30;;
43086;SDS011;28708;52.224;6.924;2023-11-22T10:38:33;5.00;;;2.73;;
43086;SDS011;28708;52.224;6.924;2023-11-22T10:40:59;4.73;;;2.13;;
43086;SDS011;28708;52.224;6.924;2023-11-22T10:43:29;4.07;;;2.23;;
43086;SDS011;28708;52.224;6.924;2023-11-22T10:45:57;6.25;;;2.60;;
43086;SDS011;28708;52.224;6.924;2023-11-22T10:48:24;4.33;;;2.17;;
43086;SDS011;28708;52.224;6.924;2023-11-22T10:50:50;3.77;;;2.30;;
43086;SDS011;28708;52.224;6.924;2023-11-22T10:53:26;3.95;;;1.98;;
43086;SDS011;28708;52.224;6.924;2023-11-22T10:56:19;5.82;;;3.03;;
43086;SDS011;28708;52.224;6.924;2023-11-22T10:58:57;4.00;;;1.83;;
43086;SDS011;28708;52.224;6.924;2023-11-22T11:01:24;5.07;;;2.13;;
43086;SDS011;28708;52.224;6.924;2023-11-22T11:04:01;4.13;;;2.13;;
43086;SDS011;28708;52.224;6.924;2023-11-22T11:06:31;4.23;;;2.20;;
43086;SDS011;28708;52.224;6.924;2023-11-22T11:09:00;4.30;;;2.13;;
43086;SDS011;28708;52.224;6.924;2023-11-22T11:11:30;4.07;;;2.03;;
43086;SDS011;28708;52.224;6.924;2023-11-22T11:13:57;4.50;;;2.13;;
43086;SDS011;28708;52.224;6.924;2023-11-22T11:16:24;3.10;;;1.83;;
43086;SDS011;28708;52.224;6.924;2023-11-22T11:18:51;4.00;;;2.13;;
43086;SDS011;28708;52.224;6.924;2023-11-22T11:21:18;3.67;;;2.00;;
43086;SDS011;28708;52.224;6.924;2023-11-22T11:23:44;4.53;;;2.50;;
43086;SDS011;28708;52.224;6.924;2023-11-22T11:26:19;3.43;;;1.90;;
43086;SDS011;28708;52.224;6.924;2023-11-22T11:28:47;4.00;;;2.00;;
43086;SDS011;28708;52.224;6.924;2023-11-22T11:31:13;4.17;;;2.20;;
43086;SDS011;28708;52.224;6.924;2023-11-22T11:36:33;4.20;;;2.10;;
43086;SDS011;28708;52.224;6.924;2023-11-22T11:39:02;4.20;;;1.80;;
43086;SDS011;28708;52.224;6.924;2023-11-22T11:41:34;2.47;;;1.40;;
43086;SDS011;28708;52.224;6.924;2023-11-22T11:44:06;3.55;;;1.80;;
43086;SDS011;28708;52.224;6.924;2023-11-22T11:46:33;3.03;;;1.85;;
43086;SDS011;28708;52.224;6.924;2023-11-22T11:48:59;3.50;;;1.87;;
43086;SDS011;28708;52.224;6.924;2023-11-22T11:51:27;3.77;;;1.53;;
43086;SDS011;28708;52.224;6.924;2023-11-22T11:53:56;3.73;;;2.07;;
43086;SDS011;28708;52.224;6.924;2023-11-22T11:56:22;4.13;;;1.97;;
43086;SDS011;28708;52.224;6.924;2023-11-22T11:58:50;4.60;;;1.93;;
43086;SDS011;28708;52.224;6.924;2023-11-22T12:01:16;4.00;;;1.80;;
43086;SDS011;28708;52.224;6.924;2023-11-22T12:03:43;4.03;;;2.03;;
43086;SDS011;28708;52.224;6.924;2023-11-22T12:06:09;2.67;;;1.57;;
43086;SDS011;28708;52.224;6.924;2023-11-22T12:08:35;4.07;;;2.07;;
43086;SDS011;28708;52.224;6.924;2023-11-22T12:11:04;3.70;;;1.90;;
43086;SDS011;28708;52.224;6.924;2023-11-22T12:13:32;2.57;;;1.30;;
43086;SDS011;28708;52.224;6.924;2023-11-22T12:15:58;2.40;;;1.33;;
43086;SDS011;28708;52.224;6.924;2023-11-22T12:18:25;4.57;;;1.93;;
43086;SDS011;28708;52.224;6.924;2023-11-22T12:20:57;3.30;;;1.80;;
43086;SDS011;28708;52.224;6.924;2023-11-22T12:23:24;3.57;;;1.83;;
43086;SDS011;28708;52.224;6.924;2023-11-22T12:25:59;3.37;;;1.80;;
43086;SDS011;28708;52.224;6.924;2023-11-22T12:28:27;3.13;;;1.57;;
43086;SDS011;28708;52.224;6.924;2023-11-22T12:30:54;3.43;;;1.67;;
43086;SDS011;28708;52.224;6.924;2023-11-22T12:33:20;3.10;;;1.67;;
43086;SDS011;28708;52.224;6.924;2023-11-22T12:35:46;3.63;;;1.67;;
43086;SDS011;28708;52.224;6.924;2023-11-22T12:38:14;2.57;;;1.43;;
43086;SDS011;28708;52.224;6.924;2023-11-22T12:40:44;2.57;;;1.40;;
43086;SDS011;28708;52.224;6.924;2023-11-22T12:43:12;3.20;;;1.50;;
43086;SDS011;28708;52.224;6.924;2023-11-22T12:45:39;2.30;;;1.27;;
43086;SDS011;28708;52.224;6.924;2023-11-22T12:48:21;2.70;;;1.37;;
43086;SDS011;28708;52.224;6.924;2023-11-22T12:50:49;1.67;;;0.90;;
43086;SDS011;28708;52.224;6.924;2023-11-22T12:53:16;2.23;;;1.23;;
43086;SDS011;28708;52.224;6.924;2023-11-22T12:55:47;3.07;;;1.47;;
43086;SDS011;28708;52.224;6.924;2023-11-22T12:58:17;2.87;;;1.60;;
43086;SDS011;28708;52.224;6.924;2023-11-22T13:00:44;3.47;;;1.37;;
43086;SDS011;28708;52.224;6.924;2023-11-22T13:03:11;3.20;;;1.60;;
43086;SDS011;28708;52.224;6.924;2023-11-22T13:05:41;2.13;;;1.30;;
43086;SDS011;28708;52.224;6.924;2023-11-22T13:08:08;3.13;;;1.53;;
43086;SDS011;28708;52.224;6.924;2023-11-22T13:10:44;3.50;;;1.27;;
43086;SDS011;28708;52.224;6.924;2023-11-22T13:13:23;3.10;;;1.67;;
43086;SDS011;28708;52.224;6.924;2023-11-22T13:18:16;3.37;;;1.73;;
43086;SDS011;28708;52.224;6.924;2023-11-22T13:20:43;3.00;;;1.50;;
43086;SDS011;28708;52.224;6.924;2023-11-22T13:23:09;3.60;;;1.60;;
43086;SDS011;28708;52.224;6.924;2023-11-22T13:25:35;3.33;;;1.57;;
43086;SDS011;28708;52.224;6.924;2023-11-22T13:28:00;2.63;;;1.27;;
43086;SDS011;28708;52.224;6.924;2023-11-22T13:30:27;3.13;;;1.30;;
43086;SDS011;28708;52.224;6.924;2023-11-22T13:32:53;3.83;;;1.30;;
43086;SDS011;28708;52.224;6.924;2023-11-22T13:35:25;2.45;;;1.48;;
43086;SDS011;28708;52.224;6.924;2023-11-22T13:37:55;5.40;;;1.80;;
43086;SDS011;28708;52.224;6.924;2023-11-22T13:40:23;3.97;;;1.83;;
43086;SDS011;28708;52.224;6.924;2023-11-22T13:42:51;2.53;;;1.50;;
43086;SDS011;28708;52.224;6.924;2023-11-22T13:45:19;3.33;;;1.60;;
43086;SDS011;28708;52.224;6.924;2023-11-22T13:47:54;4.33;;;1.87;;
43086;SDS011;28708;52.224;6.924;2023-11-22T13:50:25;2.78;;;1.50;;
43086;SDS011;28708;52.224;6.924;2023-11-22T13:52:55;7.47;;;1.73;;
43086;SDS011;28708;52.224;6.924;2023-11-22T13:55:22;3.03;;;1.67;;
43086;SDS011;28708;52.224;6.924;2023-11-22T13:57:52;3.20;;;1.57;;
43086;SDS011;28708;52.224;6.924;2023-11-22T14:00:19;3.23;;;1.57;;
43086;SDS011;28708;52.224;6.924;2023-11-22T14:02:48;3.33;;;1.50;;
43086;SDS011;28708;52.224;6.924;2023-11-22T14:05:16;3.50;;;1.47;;
43086;SDS011;28708;52.224;6.924;2023-11-22T14:07:42;3.13;;;1.67;;
43086;SDS011;28708;52.224;6.924;2023-11-22T14:10:09;2.63;;;1.17;;
43086;SDS011;28708;52.224;6.924;2023-11-22T14:12:36;2.87;;;1.40;;
43086;SDS011;28708;52.224;6.924;2023-11-22T14:15:02;2.37;;;1.10;;
43086;SDS011;28708;52.224;6.924;2023-11-22T14:17:31;3.83;;;1.60;;
43086;SDS011;28708;52.224;6.924;2023-11-22T14:19:57;2.13;;;1.27;;
43086;SDS011;28708;52.224;6.924;2023-11-22T14:22:23;3.90;;;1.77;;
43086;SDS011;28708;52.224;6.924;2023-11-22T14:24:50;2.47;;;1.33;;
43086;SDS011;28708;52.224;6.924;2023-11-22T14:27:17;2.87;;;1.30;;
43086;SDS011;28708;52.224;6.924;2023-11-22T14:29:44;2.67;;;1.33;;
43086;SDS011;28708;52.224;6.924;2023-11-22T14:32:14;4.25;;;2.17;;
43086;SDS011;28708;52.224;6.924;2023-11-22T14:34:40;3.40;;;1.30;;
43086;SDS011;28708;52.224;6.924;2023-11-22T14:37:08;3.33;;;1.60;;
43086;SDS011;28708;52.224;6.924;2023-11-22T14:39:38;4.28;;;1.52;;
43086;SDS011;28708;52.224;6.924;2023-11-22T14:42:05;3.17;;;1.30;;
43086;SDS011;28708;52.224;6.924;2023-11-22T14:44:33;2.97;;;1.33;;
43086;SDS011;28708;52.224;6.924;2023-11-22T14:47:00;2.37;;;1.40;;
43086;SDS011;28708;52.224;6.924;2023-11-22T14:49:37;4.43;;;1.70;;
43086;SDS011;28708;52.224;6.924;2023-11-22T14:52:03;1.97;;;1.07;;
43086;SDS011;28708;52.224;6.924;2023-11-22T14:54:29;2.43;;;1.50;;
43086;SDS011;28708;52.224;6.924;2023-11-22T14:56:56;4.07;;;1.97;;